sensor_id;sensor_type;location;lat;lon;timestamp;P1;durP1;ratioP1;P2;durP2;ratioP2
8419;SDS011;4247;48.550;8.822;2023-08-06T00:00:20;0.70;;;0.70;;
8419;SDS011;4247;48.550;8.822;2023-08-06T00:02:47;8.43;;;1.63;;
8419;SDS011;4247;48.550;8.822;2023-08-06T00:05:13;0.80;;;0.80;;
8419;SDS011;4247;48.550;8.822;2023-08-06T00:07:44;0.70;;;0.70;;
8419;SDS011;4247;48.550;8.822;2023-08-06T00:10:10;0.63;;;0.63;;
8419;SDS011;4247;48.550;8.822;2023-08-06T00:12:37;0.70;;;0.70;;
8419;SDS011;4247;48.550;8.822;2023-08-06T00:15:04;1.10;;;0.70;;
8419;SDS011;4247;48.550;8.822;2023-08-06T00:17:31;1.50;;;0.70;;
8419;SDS011;4247;48.550;8.822;2023-08-06T00:19:58;0.77;;;0.70;;
8419;SDS011;4247;48.550;8.822;2023-08-06T00:22:29;3.67;;;0.90;;
8419;SDS011;4247;48.550;8.822;2023-08-06T00:24:57;3.10;;;0.70;;
8419;SDS011;4247;48.550;8.822;2023-08-06T00:27:24;1.13;;;0.90;;
8419;SDS011;4247;48.550;8.822;2023-08-06T00:29:51;1.00;;;0.87;;
8419;SDS011;4247;48.550;8.822;2023-08-06T00:32:18;0.83;;;0.63;;
8419;SDS011;4247;48.550;8.822;2023-08-06T00:34:44;2.93;;;1.20;;
8419;SDS011;4247;48.550;8.822;2023-08-06T00:37:11;1.43;;;0.60;;
8419;SDS011;4247;48.550;8.822;2023-08-06T00:39:38;0.70;;;0.70;;
8419;SDS011;4247;48.550;8.822;2023-08-06T00:42:06;2.80;;;0.90;;
8419;SDS011;4247;48.550;8.822;2023-08-06T00:44:33;0.83;;;0.83;;
8419;SDS011;4247;48.550;8.822;2023-08-06T00:46:59;1.80;;;0.77;;
8419;SDS011;4247;48.550;8.822;2023-08-06T00:49:27;2.00;;;0.90;;
8419;SDS011;4247;48.550;8.822;2023-08-06T00:51:54;0.70;;;0.70;;
8419;SDS011;4247;48.550;8.822;2023-08-06T00:54:22;0.97;;;0.73;;
8419;SDS011;4247;48.550;8.822;2023-08-06T00:56:49;1.13;;;0.80;;
8419;SDS011;4247;48.550;8.822;2023-08-06T00:59:17;0.80;;;0.80;;
8419;SDS011;4247;48.550;8.822;2023-08-06T01:01:45;2.13;;;0.90;;
8419;SDS011;4247;48.550;8.822;2023-08-06T01:04:11;0.83;;;0.80;;
8419;SDS011;4247;48.550;8.822;2023-08-06T01:06:39;3.30;;;0.80;;
8419;SDS011;4247;48.550;8.822;2023-08-06T01:09:12;1.03;;;0.93;;
8419;SDS011;4247;48.550;8.822;2023-08-06T01:11:51;0.60;;;0.60;;
8419;SDS011;4247;48.550;8.822;2023-08-06T01:14:28;1.37;;;0.77;;
8419;SDS011;4247;48.550;8.822;2023-08-06T01:17:00;0.70;;;0.67;;
8419;SDS011;4247;48.550;8.822;2023-08-06T01:19:28;2.73;;;0.90;;
8419;SDS011;4247;48.550;8.822;2023-08-06T01:21:56;0.70;;;0.70;;
8419;SDS011;4247;48.550;8.822;2023-08-06T01:24:22;0.67;;;0.50;;
8419;SDS011;4247;48.550;8.822;2023-08-06T01:26:51;1.43;;;0.57;;
8419;SDS011;4247;48.550;8.822;2023-08-06T01:29:28;0.90;;;0.57;;
8419;SDS011;4247;48.550;8.822;2023-08-06T01:31:57;1.20;;;0.57;;
8419;SDS011;4247;48.550;8.822;2023-08-06T01:34:25;3.03;;;0.80;;
8419;SDS011;4247;48.550;8.822;2023-08-06T01:36:58;2.37;;;0.80;;
8419;SDS011;4247;48.550;8.822;2023-08-06T01:39:26;0.67;;;0.47;;
8419;SDS011;4247;48.550;8.822;2023-08-06T01:41:53;2.10;;;0.80;;
8419;SDS011;4247;48.550;8.822;2023-08-06T01:44:20;3.07;;;0.70;;
8419;SDS011;4247;48.550;8.822;2023-08-06T01:46:46;1.80;;;0.73;;
8419;SDS011;4247;48.550;8.822;2023-08-06T01:49:13;1.27;;;0.80;;
8419;SDS011;4247;48.550;8.822;2023-08-06T01:51:40;1.20;;;0.90;;
8419;SDS011;4247;48.550;8.822;2023-08-06T01:54:08;1.90;;;0.87;;
8419;SDS011;4247;48.550;8.822;2023-08-06T01:56:34;0.70;;;0.70;;
8419;SDS011;4247;48.550;8.822;2023-08-06T01:59:01;4.43;;;0.60;;
8419;SDS011;4247;48.550;8.822;2023-08-06T02:01:28;1.70;;;0.63;;
8419;SDS011;4247;48.550;8.822;2023-08-06T02:03:54;2.33;;;0.97;;
8419;SDS011;4247;48.550;8.822;2023-08-06T02:06:21;2.53;;;0.87;;
8419;SDS011;4247;48.550;8.822;2023-08-06T02:08:48;2.47;;;0.60;;
8419;SDS011;4247;48.550;8.822;2023-08-06T02:11:16;1.80;;;1.03;;
8419;SDS011;4247;48.550;8.822;2023-08-06T02:13:43;1.90;;;0.63;;
8419;SDS011;4247;48.550;8.822;2023-08-06T02:16:10;2.00;;;0.67;;
8419;SDS011;4247;48.550;8.822;2023-08-06T02:18:36;2.33;;;0.80;;
8419;SDS011;4247;48.550;8.822;2023-08-06T02:21:03;1.07;;;0.67;;
8419;SDS011;4247;48.550;8.822;2023-08-06T02:23:30;2.50;;;0.80;;
8419;SDS011;4247;48.550;8.822;2023-08-06T02:25:57;1.70;;;0.60;;
8419;SDS011;4247;48.550;8.822;2023-08-06T02:28:26;2.30;;;0.80;;
8419;SDS011;4247;48.550;8.822;2023-08-06T02:30:53;0.80;;;0.80;;
8419;SDS011;4247;48.550;8.822;2023-08-06T02:33:20;1.83;;;0.80;;
8419;SDS011;4247;48.550;8.822;2023-08-06T02:35:46;1.97;;;0.60;;
8419;SDS011;4247;48.550;8.822;2023-08-06T02:38:13;2.10;;;0.80;;
8419;SDS011;4247;48.550;8.822;2023-08-06T02:40:42;0.60;;;0.60;;
8419;SDS011;4247;48.550;8.822;2023-08-06T02:43:10;2.33;;;0.90;;
8419;SDS011;4247;48.550;8.822;2023-08-06T02:45:38;2.27;;;0.87;;
8419;SDS011;4247;48.550;8.822;2023-08-06T02:48:05;0.93;;;0.70;;
8419;SDS011;4247;48.550;8.822;2023-08-06T02:50:37;3.27;;;1.10;;
8419;SDS011;4247;48.550;8.822;2023-08-06T02:53:05;0.70;;;0.70;;
8419;SDS011;4247;48.550;8.822;2023-08-06T02:55:31;3.67;;;0.70;;
8419;SDS011;4247;48.550;8.822;2023-08-06T02:57:58;1.47;;;0.70;;
8419;SDS011;4247;48.550;8.822;2023-08-06T03:00:25;1.43;;;0.80;;
8419;SDS011;4247;48.550;8.822;2023-08-06T03:02:53;0.50;;;0.50;;
8419;SDS011;4247;48.550;8.822;2023-08-06T03:05:20;0.77;;;0.77;;
8419;SDS011;4247;48.550;8.822;2023-08-06T03:07:47;0.80;;;0.60;;
8419;SDS011;4247;48.550;8.822;2023-08-06T03:10:13;1.00;;;0.80;;
8419;SDS011;4247;48.550;8.822;2023-08-06T03:12:40;0.90;;;0.90;;
8419;SDS011;4247;48.550;8.822;2023-08-06T03:15:07;0.73;;;0.73;;
8419;SDS011;4247;48.550;8.822;2023-08-06T03:17:35;2.63;;;0.73;;
8419;SDS011;4247;48.550;8.822;2023-08-06T03:20:03;0.80;;;0.70;;
8419;SDS011;4247;48.550;8.822;2023-08-06T03:22:31;2.43;;;0.77;;
8419;SDS011;4247;48.550;8.822;2023-08-06T03:24:57;4.33;;;0.90;;
8419;SDS011;4247;48.550;8.822;2023-08-06T03:27:24;2.70;;;0.50;;
8419;SDS011;4247;48.550;8.822;2023-08-06T03:29:51;0.60;;;0.47;;
8419;SDS011;4247;48.550;8.822;2023-08-06T03:32:17;1.27;;;1.03;;
8419;SDS011;4247;48.550;8.822;2023-08-06T03:34:44;0.63;;;0.63;;
8419;SDS011;4247;48.550;8.822;2023-08-06T03:37:12;1.10;;;0.60;;
8419;SDS011;4247;48.550;8.822;2023-08-06T03:39:39;1.70;;;0.67;;
8419;SDS011;4247;48.550;8.822;2023-08-06T03:42:06;0.87;;;0.70;;
8419;SDS011;4247;48.550;8.822;2023-08-06T03:44:33;1.30;;;0.70;;
8419;SDS011;4247;48.550;8.822;2023-08-06T03:46:59;2.00;;;0.70;;
8419;SDS011;4247;48.550;8.822;2023-08-06T03:49:26;2.77;;;0.90;;
8419;SDS011;4247;48.550;8.822;2023-08-06T03:51:53;1.90;;;0.73;;
8419;SDS011;4247;48.550;8.822;2023-08-06T03:54:21;1.40;;;0.50;;
8419;SDS011;4247;48.550;8.822;2023-08-06T03:56:47;1.00;;;0.60;;
8419;SDS011;4247;48.550;8.822;2023-08-06T03:59:14;4.60;;;0.67;;
8419;SDS011;4247;48.550;8.822;2023-08-06T04:01:41;0.87;;;0.40;;
8419;SDS011;4247;48.550;8.822;2023-08-06T04:04:07;2.93;;;0.80;;
8419;SDS011;4247;48.550;8.822;2023-08-06T04:06:34;0.97;;;0.37;;
8419;SDS011;4247;48.550;8.822;2023-08-06T04:09:01;0.70;;;0.40;;
8419;SDS011;4247;48.550;8.822;2023-08-06T04:11:29;1.27;;;0.40;;
8419;SDS011;4247;48.550;8.822;2023-08-06T04:13:56;2.63;;;0.30;;
8419;SDS011;4247;48.550;8.822;2023-08-06T04:16:22;0.73;;;0.30;;
8419;SDS011;4247;48.550;8.822;2023-08-06T04:18:51;0.33;;;0.30;;
8419;SDS011;4247;48.550;8.822;2023-08-06T04:21:18;0.43;;;0.30;;
8419;SDS011;4247;48.550;8.822;2023-08-06T04:23:45;0.50;;;0.30;;
8419;SDS011;4247;48.550;8.822;2023-08-06T04:26:11;0.50;;;0.30;;
8419;SDS011;4247;48.550;8.822;2023-08-06T04:28:40;0.50;;;0.30;;
8419;SDS011;4247;48.550;8.822;2023-08-06T04:31:06;0.40;;;0.30;;
8419;SDS011;4247;48.550;8.822;2023-08-06T04:33:33;3.10;;;0.50;;
8419;SDS011;4247;48.550;8.822;2023-08-06T04:36:00;0.30;;;0.20;;
8419;SDS011;4247;48.550;8.822;2023-08-06T04:38:27;0.40;;;0.20;;
8419;SDS011;4247;48.550;8.822;2023-08-06T04:40:53;0.23;;;0.23;;
8419;SDS011;4247;48.550;8.822;2023-08-06T04:43:20;0.30;;;0.30;;
8419;SDS011;4247;48.550;8.822;2023-08-06T04:45:49;0.53;;;0.53;;
8419;SDS011;4247;48.550;8.822;2023-08-06T04:48:16;1.27;;;0.23;;
8419;SDS011;4247;48.550;8.822;2023-08-06T04:50:43;6.23;;;0.20;;
8419;SDS011;4247;48.550;8.822;2023-08-06T04:53:10;1.47;;;0.20;;
8419;SDS011;4247;48.550;8.822;2023-08-06T04:55:37;1.20;;;0.30;;
8419;SDS011;4247;48.550;8.822;2023-08-06T04:58:04;0.30;;;0.30;;
8419;SDS011;4247;48.550;8.822;2023-08-06T05:00:31;0.17;;;0.17;;
8419;SDS011;4247;48.550;8.822;2023-08-06T05:03:00;1.60;;;0.27;;
8419;SDS011;4247;48.550;8.822;2023-08-06T05:05:27;3.30;;;0.20;;
8419;SDS011;4247;48.550;8.822;2023-08-06T05:07:54;1.40;;;0.40;;
8419;SDS011;4247;48.550;8.822;2023-08-06T05:10:24;4.40;;;0.20;;
8419;SDS011;4247;48.550;8.822;2023-08-06T05:12:50;1.37;;;0.20;;
8419;SDS011;4247;48.550;8.822;2023-08-06T05:15:17;1.10;;;0.20;;
8419;SDS011;4247;48.550;8.822;2023-08-06T05:17:44;0.30;;;0.23;;
8419;SDS011;4247;48.550;8.822;2023-08-06T05:20:12;0.83;;;0.20;;
8419;SDS011;4247;48.550;8.822;2023-08-06T05:22:39;1.33;;;0.20;;
8419;SDS011;4247;48.550;8.822;2023-08-06T05:25:06;1.67;;;0.30;;
8419;SDS011;4247;48.550;8.822;2023-08-06T05:27:33;0.60;;;0.20;;
8419;SDS011;4247;48.550;8.822;2023-08-06T05:30:00;4.17;;;0.40;;
8419;SDS011;4247;48.550;8.822;2023-08-06T05:32:27;1.97;;;0.30;;
8419;SDS011;4247;48.550;8.822;2023-08-06T05:34:53;1.17;;;0.30;;
8419;SDS011;4247;48.550;8.822;2023-08-06T05:37:21;1.33;;;0.20;;
8419;SDS011;4247;48.550;8.822;2023-08-06T05:39:48;1.43;;;0.20;;
8419;SDS011;4247;48.550;8.822;2023-08-06T05:42:15;4.70;;;0.20;;
8419;SDS011;4247;48.550;8.822;2023-08-06T05:44:42;0.80;;;0.27;;
8419;SDS011;4247;48.550;8.822;2023-08-06T05:47:09;0.67;;;0.13;;
8419;SDS011;4247;48.550;8.822;2023-08-06T05:49:35;0.87;;;0.30;;
8419;SDS011;4247;48.550;8.822;2023-08-06T05:52:02;0.47;;;0.30;;
8419;SDS011;4247;48.550;8.822;2023-08-06T05:54:32;0.20;;;0.20;;
8419;SDS011;4247;48.550;8.822;2023-08-06T05:56:59;1.00;;;0.23;;
8419;SDS011;4247;48.550;8.822;2023-08-06T05:59:25;0.27;;;0.27;;
8419;SDS011;4247;48.550;8.822;2023-08-06T06:01:52;0.20;;;0.13;;
8419;SDS011;4247;48.550;8.822;2023-08-06T06:04:19;0.70;;;0.30;;
8419;SDS011;4247;48.550;8.822;2023-08-06T06:06:46;0.87;;;0.20;;
8419;SDS011;4247;48.550;8.822;2023-08-06T06:09:13;1.33;;;0.10;;
8419;SDS011;4247;48.550;8.822;2023-08-06T06:11:41;3.47;;;0.30;;
8419;SDS011;4247;48.550;8.822;2023-08-06T06:14:08;0.57;;;0.30;;
8419;SDS011;4247;48.550;8.822;2023-08-06T06:16:34;1.70;;;0.30;;
8419;SDS011;4247;48.550;8.822;2023-08-06T06:19:01;0.73;;;0.20;;
8419;SDS011;4247;48.550;8.822;2023-08-06T06:21:28;0.70;;;0.17;;
8419;SDS011;4247;48.550;8.822;2023-08-06T06:23:54;0.20;;;0.20;;
8419;SDS011;4247;48.550;8.822;2023-08-06T06:26:21;0.60;;;0.40;;
8419;SDS011;4247;48.550;8.822;2023-08-06T06:28:49;0.40;;;0.27;;
8419;SDS011;4247;48.550;8.822;2023-08-06T06:31:16;0.10;;;0.10;;
8419;SDS011;4247;48.550;8.822;2023-08-06T06:33:43;0.50;;;0.20;;
8419;SDS011;4247;48.550;8.822;2023-08-06T06:36:10;0.10;;;0.10;;
8419;SDS011;4247;48.550;8.822;2023-08-06T06:38:36;0.87;;;0.00;;
8419;SDS011;4247;48.550;8.822;2023-08-06T06:41:03;0.20;;;0.20;;
8419;SDS011;4247;48.550;8.822;2023-08-06T06:43:30;0.20;;;0.10;;
8419;SDS011;4247;48.550;8.822;2023-08-06T06:45:58;2.03;;;0.07;;
8419;SDS011;4247;48.550;8.822;2023-08-06T06:48:26;0.10;;;0.10;;
8419;SDS011;4247;48.550;8.822;2023-08-06T06:50:54;0.10;;;0.10;;
8419;SDS011;4247;48.550;8.822;2023-08-06T06:53:21;0.20;;;0.10;;
8419;SDS011;4247;48.550;8.822;2023-08-06T06:55:52;0.20;;;0.00;;
8419;SDS011;4247;48.550;8.822;2023-08-06T06:58:19;0.00;;;0.00;;
8419;SDS011;4247;48.550;8.822;2023-08-06T07:00:45;0.00;;;0.00;;
8419;SDS011;4247;48.550;8.822;2023-08-06T07:03:14;0.20;;;0.10;;
8419;SDS011;4247;48.550;8.822;2023-08-06T07:05:40;0.67;;;0.00;;
8419;SDS011;4247;48.550;8.822;2023-08-06T07:08:08;1.50;;;0.10;;
8419;SDS011;4247;48.550;8.822;2023-08-06T07:10:34;0.30;;;0.20;;
8419;SDS011;4247;48.550;8.822;2023-08-06T07:13:01;0.43;;;0.10;;
8419;SDS011;4247;48.550;8.822;2023-08-06T07:15:28;0.00;;;0.00;;
8419;SDS011;4247;48.550;8.822;2023-08-06T07:17:54;0.00;;;0.00;;
8419;SDS011;4247;48.550;8.822;2023-08-06T07:20:22;0.00;;;0.00;;
8419;SDS011;4247;48.550;8.822;2023-08-06T07:22:49;0.00;;;0.00;;
8419;SDS011;4247;48.550;8.822;2023-08-06T07:25:16;0.00;;;0.00;;
8419;SDS011;4247;48.550;8.822;2023-08-06T07:27:44;0.00;;;0.00;;
8419;SDS011;4247;48.550;8.822;2023-08-06T07:30:11;0.00;;;0.00;;
8419;SDS011;4247;48.550;8.822;2023-08-06T07:32:37;0.00;;;0.00;;
8419;SDS011;4247;48.550;8.822;2023-08-06T07:35:04;0.10;;;0.10;;
8419;SDS011;4247;48.550;8.822;2023-08-06T07:37:34;0.00;;;0.00;;
8419;SDS011;4247;48.550;8.822;2023-08-06T07:40:01;0.00;;;0.00;;
8419;SDS011;4247;48.550;8.822;2023-08-06T07:42:28;0.30;;;0.10;;
8419;SDS011;4247;48.550;8.822;2023-08-06T07:44:55;1.60;;;0.00;;
8419;SDS011;4247;48.550;8.822;2023-08-06T07:47:24;0.00;;;0.00;;
8419;SDS011;4247;48.550;8.822;2023-08-06T07:49:51;0.00;;;0.00;;
8419;SDS011;4247;48.550;8.822;2023-08-06T07:52:18;0.00;;;0.00;;
8419;SDS011;4247;48.550;8.822;2023-08-06T07:54:46;0.00;;;0.00;;
8419;SDS011;4247;48.550;8.822;2023-08-06T07:57:12;0.10;;;0.00;;
8419;SDS011;4247;48.550;8.822;2023-08-06T07:59:40;0.20;;;0.00;;
8419;SDS011;4247;48.550;8.822;2023-08-06T08:02:07;0.20;;;0.00;;
8419;SDS011;4247;48.550;8.822;2023-08-06T08:04:34;0.00;;;0.00;;
8419;SDS011;4247;48.550;8.822;2023-08-06T08:07:00;0.50;;;0.10;;
8419;SDS011;4247;48.550;8.822;2023-08-06T08:09:27;0.00;;;0.00;;
8419;SDS011;4247;48.550;8.822;2023-08-06T08:11:55;0.20;;;0.10;;
8419;SDS011;4247;48.550;8.822;2023-08-06T08:14:22;1.60;;;0.10;;
8419;SDS011;4247;48.550;8.822;2023-08-06T08:16:49;0.00;;;0.00;;
8419;SDS011;4247;48.550;8.822;2023-08-06T08:19:16;0.30;;;0.00;;
8419;SDS011;4247;48.550;8.822;2023-08-06T08:21:43;0.20;;;0.00;;
8419;SDS011;4247;48.550;8.822;2023-08-06T08:24:09;0.00;;;0.00;;
8419;SDS011;4247;48.550;8.822;2023-08-06T08:26:36;0.00;;;0.00;;
8419;SDS011;4247;48.550;8.822;2023-08-06T08:29:04;0.27;;;0.00;;
8419;SDS011;4247;48.550;8.822;2023-08-06T08:31:31;0.00;;;0.00;;
8419;SDS011;4247;48.550;8.822;2023-08-06T08:34:04;0.00;;;0.00;;
8419;SDS011;4247;48.550;8.822;2023-08-06T08:36:30;0.00;;;0.00;;
8419;SDS011;4247;48.550;8.822;2023-08-06T08:38:57;0.00;;;0.00;;
8419;SDS011;4247;48.550;8.822;2023-08-06T08:41:24;0.53;;;0.17;;
8419;SDS011;4247;48.550;8.822;2023-08-06T08:43:51;0.00;;;0.00;;
8419;SDS011;4247;48.550;8.822;2023-08-06T08:46:19;0.10;;;0.00;;
8419;SDS011;4247;48.550;8.822;2023-08-06T08:48:46;0.00;;;0.00;;
8419;SDS011;4247;48.550;8.822;2023-08-06T08:51:13;0.00;;;0.00;;
8419;SDS011;4247;48.550;8.822;2023-08-06T08:53:41;0.00;;;0.00;;
8419;SDS011;4247;48.550;8.822;2023-08-06T08:56:11;0.00;;;0.00;;
8419;SDS011;4247;48.550;8.822;2023-08-06T08:58:39;0.10;;;0.10;;
8419;SDS011;4247;48.550;8.822;2023-08-06T09:01:06;0.00;;;0.00;;
8419;SDS011;4247;48.550;8.822;2023-08-06T09:03:36;1.13;;;0.00;;
8419;SDS011;4247;48.550;8.822;2023-08-06T09:06:03;0.10;;;0.00;;
8419;SDS011;4247;48.550;8.822;2023-08-06T09:08:32;0.37;;;0.30;;
8419;SDS011;4247;48.550;8.822;2023-08-06T09:11:02;0.50;;;0.50;;
8419;SDS011;4247;48.550;8.822;2023-08-06T09:13:30;0.53;;;0.00;;
8419;SDS011;4247;48.550;8.822;2023-08-06T09:15:57;0.10;;;0.10;;
8419;SDS011;4247;48.550;8.822;2023-08-06T09:18:27;1.50;;;0.00;;
8419;SDS011;4247;48.550;8.822;2023-08-06T09:20:57;0.10;;;0.03;;
8419;SDS011;4247;48.550;8.822;2023-08-06T09:23:27;0.00;;;0.00;;
8419;SDS011;4247;48.550;8.822;2023-08-06T09:25:55;0.00;;;0.00;;
8419;SDS011;4247;48.550;8.822;2023-08-06T09:28:22;0.30;;;0.10;;
8419;SDS011;4247;48.550;8.822;2023-08-06T09:30:50;0.00;;;0.00;;
8419;SDS011;4247;48.550;8.822;2023-08-06T09:33:20;0.10;;;0.10;;
8419;SDS011;4247;48.550;8.822;2023-08-06T09:35:48;1.17;;;0.10;;
8419;SDS011;4247;48.550;8.822;2023-08-06T09:38:17;0.10;;;0.10;;
8419;SDS011;4247;48.550;8.822;2023-08-06T09:40:43;0.60;;;0.10;;
8419;SDS011;4247;48.550;8.822;2023-08-06T09:43:10;0.40;;;0.10;;
8419;SDS011;4247;48.550;8.822;2023-08-06T09:45:38;1.07;;;0.20;;
8419;SDS011;4247;48.550;8.822;2023-08-06T09:48:05;0.83;;;0.20;;
8419;SDS011;4247;48.550;8.822;2023-08-06T09:50:33;0.00;;;0.00;;
8419;SDS011;4247;48.550;8.822;2023-08-06T09:53:02;0.10;;;0.07;;
8419;SDS011;4247;48.550;8.822;2023-08-06T09:55:31;0.43;;;0.10;;
8419;SDS011;4247;48.550;8.822;2023-08-06T09:57:59;0.03;;;0.00;;
8419;SDS011;4247;48.550;8.822;2023-08-06T10:00:26;0.30;;;0.30;;
8419;SDS011;4247;48.550;8.822;2023-08-06T10:02:54;0.20;;;0.20;;
8419;SDS011;4247;48.550;8.822;2023-08-06T10:05:25;0.30;;;0.30;;
8419;SDS011;4247;48.550;8.822;2023-08-06T10:07:53;0.40;;;0.20;;
8419;SDS011;4247;48.550;8.822;2023-08-06T10:10:21;0.17;;;0.17;;
8419;SDS011;4247;48.550;8.822;2023-08-06T10:12:51;0.10;;;0.10;;
8419;SDS011;4247;48.550;8.822;2023-08-06T10:15:21;1.30;;;0.10;;
8419;SDS011;4247;48.550;8.822;2023-08-06T10:17:51;0.10;;;0.10;;
8419;SDS011;4247;48.550;8.822;2023-08-06T10:20:22;0.40;;;0.10;;
8419;SDS011;4247;48.550;8.822;2023-08-06T10:22:59;0.10;;;0.10;;
8419;SDS011;4247;48.550;8.822;2023-08-06T10:25:28;1.80;;;0.00;;
8419;SDS011;4247;48.550;8.822;2023-08-06T10:27:58;0.00;;;0.00;;
8419;SDS011;4247;48.550;8.822;2023-08-06T10:30:28;0.67;;;0.10;;
8419;SDS011;4247;48.550;8.822;2023-08-06T10:32:57;3.67;;;0.03;;
8419;SDS011;4247;48.550;8.822;2023-08-06T10:35:31;0.10;;;0.00;;
8419;SDS011;4247;48.550;8.822;2023-08-06T10:38:04;0.30;;;0.10;;
8419;SDS011;4247;48.550;8.822;2023-08-06T10:40:33;0.00;;;0.00;;
8419;SDS011;4247;48.550;8.822;2023-08-06T10:43:01;0.00;;;0.00;;
8419;SDS011;4247;48.550;8.822;2023-08-06T10:45:29;0.00;;;0.00;;
8419;SDS011;4247;48.550;8.822;2023-08-06T10:47:59;1.13;;;0.10;;
8419;SDS011;4247;48.550;8.822;2023-08-06T10:50:26;0.10;;;0.00;;
8419;SDS011;4247;48.550;8.822;2023-08-06T10:52:53;0.40;;;0.00;;
8419;SDS011;4247;48.550;8.822;2023-08-06T10:55:23;0.00;;;0.00;;
8419;SDS011;4247;48.550;8.822;2023-08-06T10:57:51;0.00;;;0.00;;
8419;SDS011;4247;48.550;8.822;2023-08-06T11:00:20;1.30;;;0.07;;
8419;SDS011;4247;48.550;8.822;2023-08-06T11:02:47;0.07;;;0.00;;
8419;SDS011;4247;48.550;8.822;2023-08-06T11:05:14;0.00;;;0.00;;
8419;SDS011;4247;48.550;8.822;2023-08-06T11:07:41;2.03;;;0.00;;
8419;SDS011;4247;48.550;8.822;2023-08-06T11:10:09;0.73;;;0.00;;
8419;SDS011;4247;48.550;8.822;2023-08-06T11:12:36;0.00;;;0.00;;
8419;SDS011;4247;48.550;8.822;2023-08-06T11:15:04;0.00;;;0.00;;
8419;SDS011;4247;48.550;8.822;2023-08-06T11:17:33;0.00;;;0.00;;
8419;SDS011;4247;48.550;8.822;2023-08-06T11:20:01;0.00;;;0.00;;
8419;SDS011;4247;48.550;8.822;2023-08-06T11:22:29;0.30;;;0.00;;
8419;SDS011;4247;48.550;8.822;2023-08-06T11:24:55;0.00;;;0.00;;
8419;SDS011;4247;48.550;8.822;2023-08-06T11:27:23;0.03;;;0.00;;
8419;SDS011;4247;48.550;8.822;2023-08-06T11:29:52;0.10;;;0.00;;
8419;SDS011;4247;48.550;8.822;2023-08-06T11:32:19;0.10;;;0.10;;
8419;SDS011;4247;48.550;8.822;2023-08-06T11:34:47;0.00;;;0.00;;
8419;SDS011;4247;48.550;8.822;2023-08-06T11:37:13;0.00;;;0.00;;
8419;SDS011;4247;48.550;8.822;2023-08-06T11:39:44;1.33;;;0.00;;
8419;SDS011;4247;48.550;8.822;2023-08-06T11:42:13;0.00;;;0.00;;
8419;SDS011;4247;48.550;8.822;2023-08-06T11:44:40;0.10;;;0.10;;
8419;SDS011;4247;48.550;8.822;2023-08-06T11:47:11;0.27;;;0.10;;
8419;SDS011;4247;48.550;8.822;2023-08-06T11:49:40;0.10;;;0.10;;
8419;SDS011;4247;48.550;8.822;2023-08-06T11:52:20;0.10;;;0.10;;
8419;SDS011;4247;48.550;8.822;2023-08-06T11:54:48;0.97;;;0.20;;
8419;SDS011;4247;48.550;8.822;2023-08-06T11:57:28;0.73;;;0.20;;
8419;SDS011;4247;48.550;8.822;2023-08-06T11:59:57;0.20;;;0.10;;
8419;SDS011;4247;48.550;8.822;2023-08-06T12:02:27;0.17;;;0.17;;
8419;SDS011;4247;48.550;8.822;2023-08-06T12:05:00;1.17;;;0.20;;
8419;SDS011;4247;48.550;8.822;2023-08-06T12:07:31;0.23;;;0.23;;
8419;SDS011;4247;48.550;8.822;2023-08-06T12:09:59;0.20;;;0.20;;
8419;SDS011;4247;48.550;8.822;2023-08-06T12:12:26;0.40;;;0.40;;
8419;SDS011;4247;48.550;8.822;2023-08-06T12:14:54;2.10;;;0.37;;
8419;SDS011;4247;48.550;8.822;2023-08-06T12:17:21;1.77;;;0.40;;
8419;SDS011;4247;48.550;8.822;2023-08-06T12:19:48;0.70;;;0.40;;
8419;SDS011;4247;48.550;8.822;2023-08-06T12:22:15;0.30;;;0.30;;
8419;SDS011;4247;48.550;8.822;2023-08-06T12:24:44;1.03;;;0.20;;
8419;SDS011;4247;48.550;8.822;2023-08-06T12:27:13;1.13;;;0.20;;
8419;SDS011;4247;48.550;8.822;2023-08-06T12:29:40;0.23;;;0.20;;
8419;SDS011;4247;48.550;8.822;2023-08-06T12:32:08;0.60;;;0.20;;
8419;SDS011;4247;48.550;8.822;2023-08-06T12:34:35;0.20;;;0.20;;
8419;SDS011;4247;48.550;8.822;2023-08-06T12:37:03;0.20;;;0.20;;
8419;SDS011;4247;48.550;8.822;2023-08-06T12:39:30;0.10;;;0.10;;
8419;SDS011;4247;48.550;8.822;2023-08-06T12:41:59;0.20;;;0.20;;
8419;SDS011;4247;48.550;8.822;2023-08-06T12:44:25;0.30;;;0.20;;
8419;SDS011;4247;48.550;8.822;2023-08-06T12:46:52;0.40;;;0.10;;
8419;SDS011;4247;48.550;8.822;2023-08-06T12:49:19;0.10;;;0.10;;
8419;SDS011;4247;48.550;8.822;2023-08-06T12:51:47;0.10;;;0.10;;
8419;SDS011;4247;48.550;8.822;2023-08-06T12:54:13;0.53;;;0.17;;
8419;SDS011;4247;48.550;8.822;2023-08-06T12:56:40;1.63;;;0.10;;
8419;SDS011;4247;48.550;8.822;2023-08-06T12:59:08;0.37;;;0.20;;
8419;SDS011;4247;48.550;8.822;2023-08-06T13:01:36;1.90;;;0.10;;
8419;SDS011;4247;48.550;8.822;2023-08-06T13:04:03;0.10;;;0.10;;
8419;SDS011;4247;48.550;8.822;2023-08-06T13:06:30;0.57;;;0.20;;
8419;SDS011;4247;48.550;8.822;2023-08-06T13:09:00;0.77;;;0.10;;
8419;SDS011;4247;48.550;8.822;2023-08-06T13:11:28;0.10;;;0.10;;
8419;SDS011;4247;48.550;8.822;2023-08-06T13:13:55;0.20;;;0.20;;
8419;SDS011;4247;48.550;8.822;2023-08-06T13:16:24;0.20;;;0.13;;
8419;SDS011;4247;48.550;8.822;2023-08-06T13:18:50;0.20;;;0.20;;
8419;SDS011;4247;48.550;8.822;2023-08-06T13:21:17;0.10;;;0.10;;
8419;SDS011;4247;48.550;8.822;2023-08-06T13:23:44;0.10;;;0.10;;
8419;SDS011;4247;48.550;8.822;2023-08-06T13:26:10;0.17;;;0.13;;
8419;SDS011;4247;48.550;8.822;2023-08-06T13:28:37;0.20;;;0.20;;
8419;SDS011;4247;48.550;8.822;2023-08-06T13:31:04;4.23;;;0.10;;
8419;SDS011;4247;48.550;8.822;2023-08-06T13:33:32;0.10;;;0.10;;
8419;SDS011;4247;48.550;8.822;2023-08-06T13:35:59;0.00;;;0.00;;
8419;SDS011;4247;48.550;8.822;2023-08-06T13:38:26;0.83;;;0.20;;
8419;SDS011;4247;48.550;8.822;2023-08-06T13:40:53;0.20;;;0.10;;
8419;SDS011;4247;48.550;8.822;2023-08-06T13:43:19;0.10;;;0.10;;
8419;SDS011;4247;48.550;8.822;2023-08-06T13:45:46;1.40;;;0.10;;
8419;SDS011;4247;48.550;8.822;2023-08-06T13:48:13;0.13;;;0.10;;
8419;SDS011;4247;48.550;8.822;2023-08-06T13:50:41;0.30;;;0.17;;
8419;SDS011;4247;48.550;8.822;2023-08-06T13:53:07;0.10;;;0.10;;
8419;SDS011;4247;48.550;8.822;2023-08-06T13:55:34;0.10;;;0.10;;
8419;SDS011;4247;48.550;8.822;2023-08-06T13:58:01;0.00;;;0.00;;
8419;SDS011;4247;48.550;8.822;2023-08-06T14:00:28;0.50;;;0.10;;
8419;SDS011;4247;48.550;8.822;2023-08-06T14:02:55;0.10;;;0.03;;
8419;SDS011;4247;48.550;8.822;2023-08-06T14:05:22;0.10;;;0.10;;
8419;SDS011;4247;48.550;8.822;2023-08-06T14:07:50;0.10;;;0.10;;
8419;SDS011;4247;48.550;8.822;2023-08-06T14:10:16;0.20;;;0.20;;
8419;SDS011;4247;48.550;8.822;2023-08-06T14:12:43;0.03;;;0.03;;
8419;SDS011;4247;48.550;8.822;2023-08-06T14:15:10;0.33;;;0.10;;
8419;SDS011;4247;48.550;8.822;2023-08-06T14:17:37;0.10;;;0.10;;
8419;SDS011;4247;48.550;8.822;2023-08-06T14:20:05;0.20;;;0.10;;
8419;SDS011;4247;48.550;8.822;2023-08-06T14:22:36;0.67;;;0.20;;
8419;SDS011;4247;48.550;8.822;2023-08-06T14:25:05;0.30;;;0.10;;
8419;SDS011;4247;48.550;8.822;2023-08-06T14:27:32;0.10;;;0.10;;
8419;SDS011;4247;48.550;8.822;2023-08-06T14:29:59;0.10;;;0.10;;
8419;SDS011;4247;48.550;8.822;2023-08-06T14:32:28;0.10;;;0.10;;
8419;SDS011;4247;48.550;8.822;2023-08-06T14:34:54;0.10;;;0.10;;
8419;SDS011;4247;48.550;8.822;2023-08-06T14:37:22;0.20;;;0.10;;
8419;SDS011;4247;48.550;8.822;2023-08-06T14:39:49;0.03;;;0.03;;
8419;SDS011;4247;48.550;8.822;2023-08-06T14:42:17;0.10;;;0.10;;
8419;SDS011;4247;48.550;8.822;2023-08-06T14:44:44;0.00;;;0.00;;
8419;SDS011;4247;48.550;8.822;2023-08-06T14:47:10;0.10;;;0.10;;
8419;SDS011;4247;48.550;8.822;2023-08-06T14:49:37;0.10;;;0.10;;
8419;SDS011;4247;48.550;8.822;2023-08-06T14:52:05;1.60;;;0.10;;
8419;SDS011;4247;48.550;8.822;2023-08-06T14:54:32;0.20;;;0.20;;
8419;SDS011;4247;48.550;8.822;2023-08-06T14:56:59;0.50;;;0.10;;
8419;SDS011;4247;48.550;8.822;2023-08-06T14:59:27;0.00;;;0.00;;
8419;SDS011;4247;48.550;8.822;2023-08-06T15:01:54;0.10;;;0.10;;
8419;SDS011;4247;48.550;8.822;2023-08-06T15:04:20;0.83;;;0.10;;
8419;SDS011;4247;48.550;8.822;2023-08-06T15:06:48;0.30;;;0.20;;
8419;SDS011;4247;48.550;8.822;2023-08-06T15:09:15;0.30;;;0.30;;
8419;SDS011;4247;48.550;8.822;2023-08-06T15:11:41;0.13;;;0.10;;
8419;SDS011;4247;48.550;8.822;2023-08-06T15:14:08;0.10;;;0.10;;
8419;SDS011;4247;48.550;8.822;2023-08-06T15:16:36;0.13;;;0.10;;